createdAt,value
2019-04-27T00:00:59.119Z,99.90
2019-04-27T00:03:42.842Z,99.90
2019-04-27T00:06:13.492Z,99.90
2019-04-27T00:08:47.641Z,99.90
2019-04-27T00:11:37.463Z,99.90
2019-04-27T00:14:05.254Z,99.90
2019-04-27T00:16:57.722Z,99.90
2019-04-27T00:19:35.456Z,99.90
2019-04-27T00:22:15.663Z,99.90
2019-04-27T00:24:44.370Z,99.90
2019-04-27T00:27:13.426Z,99.90
2019-04-27T00:29:43.183Z,99.90
2019-04-27T00:32:13.194Z,99.90
2019-04-27T00:34:43.124Z,99.90
2019-04-27T00:37:30.042Z,99.90
2019-04-27T00:40:03.847Z,99.90
2019-04-27T00:42:33.361Z,99.90
2019-04-27T00:45:03.310Z,99.90
2019-04-27T00:47:35.026Z,99.90
2019-04-27T00:50:04.870Z,99.90
2019-04-27T00:52:34.828Z,99.90
2019-04-27T00:55:04.172Z,99.90
2019-04-27T00:57:59.020Z,99.90
2019-04-27T01:00:59.311Z,99.90
2019-04-27T01:03:35.372Z,99.90
2019-04-27T01:06:04.507Z,99.90
2019-04-27T01:08:34.281Z,99.90
2019-04-27T01:11:03.204Z,99.90
2019-04-27T01:13:34.682Z,99.90
2019-04-27T01:16:03.774Z,99.90
2019-04-27T01:18:32.400Z,99.90
2019-04-27T01:21:01.093Z,99.90
2019-04-27T01:23:30.866Z,99.90
2019-04-27T01:26:34.492Z,99.90
2019-04-27T01:29:06.903Z,99.90
2019-04-27T01:31:35.688Z,99.90
2019-04-27T01:34:04.540Z,99.90
2019-04-27T01:36:33.210Z,99.90
2019-04-27T01:39:01.901Z,99.90
2019-04-27T01:41:32.258Z,99.90
2019-04-27T01:44:00.936Z,99.90
2019-04-27T01:46:29.772Z,99.90
2019-04-27T01:48:59.102Z,99.90
2019-04-27T01:51:29.421Z,99.90
2019-04-27T01:53:59.359Z,99.90
2019-04-27T01:56:29.353Z,99.90
2019-04-27T01:58:59.503Z,99.90
2019-04-27T02:01:50.666Z,99.90
2019-04-27T02:04:26.153Z,99.90
2019-04-27T02:06:56.761Z,99.90
2019-04-27T02:09:25.693Z,99.90
2019-04-27T02:11:54.388Z,99.90
2019-04-27T02:14:23.067Z,99.90
2019-04-27T02:16:51.822Z,99.90
2019-04-27T02:19:20.626Z,99.90
2019-04-27T02:21:51.505Z,99.90
2019-04-27T02:24:22.259Z,99.90
2019-04-27T02:26:51.142Z,99.90
2019-04-27T02:29:35.333Z,99.90
2019-04-27T02:32:22.068Z,99.90
2019-04-27T02:34:57.110Z,99.90
2019-04-27T02:37:25.784Z,99.90
2019-04-27T02:39:54.586Z,99.90
2019-04-27T02:42:25.175Z,99.90
2019-04-27T02:44:54.019Z,99.90
2019-04-27T02:47:22.760Z,99.90
2019-04-27T02:49:51.479Z,99.90
2019-04-27T02:52:25.957Z,99.90
2019-04-27T02:54:54.598Z,99.90
2019-04-27T02:57:23.174Z,99.90
2019-04-27T02:59:51.941Z,99.90
2019-04-27T03:02:29.970Z,99.90
2019-04-27T03:05:00.695Z,99.90
2019-04-27T03:07:30.364Z,99.90
2019-04-27T03:10:01.626Z,99.90
2019-04-27T03:12:33.846Z,99.90
2019-04-27T03:15:30.360Z,99.90
2019-04-27T03:18:12.166Z,99.90
2019-04-27T03:21:00.311Z,99.90
2019-04-27T03:23:30.397Z,99.90
2019-04-27T03:26:14.850Z,99.90
2019-04-27T03:28:43.652Z,99.90
2019-04-27T03:31:13.960Z,99.90
2019-04-27T03:33:43.444Z,99.90
2019-04-27T03:36:13.176Z,99.90
2019-04-27T03:38:42.379Z,99.90
2019-04-27T03:41:11.149Z,99.90
2019-04-27T03:43:40.384Z,99.90
2019-04-27T03:46:10.369Z,99.90
2019-04-27T03:48:40.700Z,99.90
2019-04-27T03:51:31.065Z,99.90
2019-04-27T03:54:19.334Z,99.90
2019-04-27T03:56:51.527Z,99.90
2019-04-27T03:59:42.818Z,99.90
2019-04-27T04:02:11.552Z,99.90
2019-04-27T04:04:40.614Z,99.90
2019-04-27T04:07:19.728Z,99.90
2019-04-27T04:09:50.258Z,99.90
2019-04-27T04:12:40.010Z,99.90
2019-04-27T04:15:12.504Z,99.90
2019-04-27T04:17:41.256Z,99.90
2019-04-27T04:20:10.346Z,99.90
2019-04-27T04:22:40.364Z,99.90
2019-04-27T04:25:10.751Z,99.90
2019-04-27T04:27:42.684Z,99.90
2019-04-27T04:30:12.297Z,99.90
2019-04-27T04:32:41.251Z,99.90
2019-04-27T04:35:21.609Z,99.90
2019-04-27T04:37:52.688Z,99.90
2019-04-27T04:40:25.203Z,99.90
2019-04-27T04:43:03.803Z,99.90
2019-04-27T04:45:52.294Z,99.90
2019-04-27T04:48:21.126Z,99.90
2019-04-27T04:50:50.220Z,99.90
2019-04-27T04:53:20.643Z,99.90
2019-04-27T04:55:49.708Z,99.90
2019-04-27T04:58:20.985Z,99.90
2019-04-27T05:00:50.221Z,99.90
2019-04-27T05:03:21.465Z,99.90
2019-04-27T05:05:50.155Z,99.90
2019-04-27T05:08:19.093Z,99.90
2019-04-27T05:10:49.671Z,99.90
2019-04-27T05:13:19.331Z,99.90
2019-04-27T05:15:48.800Z,99.90
2019-04-27T05:18:19.124Z,99.90
2019-04-27T05:20:54.706Z,99.90
2019-04-27T05:23:23.432Z,99.90
2019-04-27T05:25:51.949Z,99.90
2019-04-27T05:28:20.469Z,99.90
2019-04-27T05:30:49.077Z,99.90
2019-04-27T05:33:18.766Z,99.90
2019-04-27T05:35:49.235Z,99.90
2019-04-27T05:38:19.280Z,99.90
2019-04-27T05:40:49.969Z,99.90
2019-04-27T05:43:20.386Z,99.90
2019-04-27T05:46:29.799Z,99.90
2019-04-27T05:49:06.086Z,99.90
2019-04-27T05:51:36.637Z,99.90
2019-04-27T05:54:00.994Z,99.90
2019-04-27T05:56:29.520Z,99.90
2019-04-27T05:59:00.315Z,99.90
2019-04-27T06:01:29.717Z,99.90
2019-04-27T06:03:58.913Z,99.90
2019-04-27T06:06:29.383Z,99.90
2019-04-27T06:08:59.469Z,99.90
2019-04-27T06:11:28.736Z,99.90
2019-04-27T06:13:59.203Z,99.90
2019-04-27T06:16:29.382Z,99.90
2019-04-27T06:18:59.462Z,99.90
2019-04-27T06:21:29.476Z,99.90
2019-04-27T06:23:58.884Z,99.90
2019-04-27T06:26:29.909Z,99.90
2019-04-27T06:28:59.511Z,99.90
2019-04-27T06:31:29.712Z,99.90
2019-04-27T06:33:59.718Z,99.90
2019-04-27T06:36:28.786Z,99.90
2019-04-27T06:38:58.941Z,99.90
2019-04-27T06:41:29.577Z,99.90
2019-04-27T06:43:59.334Z,99.90
2019-04-27T06:46:28.818Z,99.90
2019-04-27T06:48:59.337Z,99.90
2019-04-27T06:51:28.683Z,99.90
2019-04-27T06:53:59.244Z,99.90
2019-04-27T06:56:28.714Z,99.90
2019-04-27T06:58:59.570Z,99.90
2019-04-27T07:01:29.839Z,99.90
2019-04-27T07:03:59.778Z,99.90
2019-04-27T07:06:28.670Z,99.90
2019-04-27T07:08:57.306Z,99.90
2019-04-27T07:11:25.987Z,99.90
2019-04-27T07:13:54.484Z,99.90
2019-04-27T07:16:23.152Z,99.90
2019-04-27T07:18:51.841Z,99.90
2019-04-27T07:21:24.731Z,99.90
2019-04-27T07:23:56.633Z,99.90
2019-04-27T07:26:26.759Z,99.90
2019-04-27T07:28:55.387Z,99.90
2019-04-27T07:31:24.214Z,99.90
2019-04-27T07:33:52.956Z,99.90
2019-04-27T07:36:21.596Z,99.90
2019-04-27T07:38:52.319Z,99.90
2019-04-27T07:41:21.744Z,99.90
2019-04-27T07:44:19.409Z,99.90
2019-04-27T07:47:09.623Z,99.90
2019-04-27T07:49:39.110Z,99.90
2019-04-27T07:52:08.728Z,99.90
2019-04-27T07:54:38.554Z,99.90
2019-04-27T07:57:09.827Z,99.90
2019-04-27T07:59:42.089Z,99.90
2019-04-27T08:02:11.132Z,99.90
2019-04-27T08:04:40.095Z,99.90
2019-04-27T08:07:09.290Z,99.90
2019-04-27T08:09:39.775Z,99.90
2019-04-27T08:12:10.729Z,99.90
2019-04-27T08:14:39.592Z,99.90
2019-04-27T08:17:09.771Z,99.90
2019-04-27T08:19:39.452Z,99.90
2019-04-27T08:22:09.679Z,99.90
2019-04-27T08:24:39.582Z,99.90
2019-04-27T08:27:20.625Z,99.90
2019-04-27T08:30:09.379Z,99.90
2019-04-27T08:32:42.001Z,99.90
2019-04-27T08:35:10.832Z,99.90
2019-04-27T08:37:39.519Z,99.90
2019-04-27T08:40:10.073Z,99.90
2019-04-27T08:42:39.242Z,99.90
2019-04-27T08:45:09.448Z,99.90
2019-04-27T08:47:39.474Z,99.90
2019-04-27T08:50:09.302Z,99.90
2019-04-27T08:52:41.617Z,99.90
2019-04-27T08:55:10.426Z,99.90
2019-04-27T08:57:39.164Z,99.90
2019-04-27T09:00:09.435Z,99.90
2019-04-27T09:02:44.473Z,99.90
2019-04-27T09:05:09.579Z,99.90
2019-04-27T09:08:01.081Z,99.90
2019-04-27T09:10:49.800Z,99.90
2019-04-27T09:13:25.037Z,99.90
2019-04-27T09:16:31.104Z,99.90
2019-04-27T09:19:04.390Z,99.90
2019-04-27T09:21:52.458Z,99.90
2019-04-27T09:24:21.106Z,99.90
2019-04-27T09:26:49.784Z,99.90
2019-04-27T09:29:19.802Z,99.90
2019-04-27T09:31:49.212Z,99.90
2019-04-27T09:34:19.052Z,99.90
2019-04-27T09:36:48.035Z,99.90
2019-04-27T09:39:16.934Z,99.90
2019-04-27T09:41:46.043Z,99.90
2019-04-27T09:44:16.713Z,99.90
2019-04-27T09:46:45.478Z,99.90
2019-04-27T09:49:15.713Z,99.90
2019-04-27T09:51:46.012Z,99.90
2019-04-27T09:54:15.926Z,99.80
2019-04-27T09:56:46.620Z,99.40
2019-04-27T09:59:16.403Z,99.90
2019-04-27T10:01:46.539Z,98.70
2019-04-27T10:04:15.670Z,99.50
2019-04-27T10:06:46.506Z,99.90
2019-04-27T10:09:16.326Z,99.00
2019-04-27T10:11:44.968Z,99.90
2019-04-27T10:14:13.763Z,99.90
2019-04-27T10:16:42.540Z,99.90
2019-04-27T10:19:11.230Z,99.90
2019-04-27T10:21:40.103Z,99.90
2019-04-27T10:24:08.861Z,99.40
2019-04-27T10:26:37.471Z,99.90
2019-04-27T10:29:06.228Z,99.30
2019-04-27T10:31:34.960Z,99.90
2019-04-27T10:34:03.700Z,99.90
2019-04-27T10:36:41.045Z,99.90
2019-04-27T10:39:13.265Z,99.90
2019-04-27T10:41:42.088Z,99.90
2019-04-27T10:44:10.829Z,99.90
2019-04-27T10:46:39.609Z,99.20
2019-04-27T10:49:08.682Z,99.10
2019-04-27T10:51:37.309Z,98.90
2019-04-27T10:54:06.614Z,99.60
2019-04-27T10:56:36.159Z,99.80
2019-04-27T10:59:07.170Z,99.40
2019-04-27T11:01:36.571Z,99.30
2019-04-27T11:04:15.818Z,99.30
2019-04-27T11:06:47.272Z,99.50
2019-04-27T11:09:16.380Z,98.90
2019-04-27T11:11:46.362Z,98.60
2019-04-27T11:14:15.998Z,98.80
2019-04-27T11:16:45.930Z,99.10
2019-04-27T11:19:16.882Z,98.80
2019-04-27T11:21:46.541Z,97.70
2019-04-27T11:24:15.349Z,98.40
2019-04-27T11:26:43.896Z,98.50
2019-04-27T11:29:12.702Z,98.60
2019-04-27T11:31:41.502Z,98.90
2019-04-27T11:34:10.717Z,98.40
2019-04-27T11:36:46.610Z,98.90
2019-04-27T11:39:18.099Z,98.60
2019-04-27T11:41:46.873Z,98.70
2019-04-27T11:44:17.021Z,98.10
2019-04-27T11:46:47.570Z,98.10
2019-04-27T11:49:16.644Z,97.90
2019-04-27T11:51:46.576Z,97.30
2019-04-27T11:54:15.653Z,96.80
2019-04-27T11:56:44.298Z,96.00
2019-04-27T11:59:13.240Z,96.40
2019-04-27T12:01:41.966Z,96.20
2019-04-27T12:04:10.910Z,96.60
2019-04-27T12:06:39.608Z,96.30
2019-04-27T12:09:08.951Z,96.40
2019-04-27T12:11:37.657Z,95.80
2019-04-27T12:14:06.369Z,95.70
2019-04-27T12:16:36.026Z,96.00
2019-04-27T12:19:06.550Z,96.30
2019-04-27T12:21:36.168Z,95.20
2019-04-27T12:24:05.260Z,94.90
2019-04-27T12:26:57.417Z,94.20
2019-04-27T12:29:45.427Z,94.20
2019-04-27T12:32:16.236Z,94.40
2019-04-27T12:34:46.516Z,94.70
2019-04-27T12:37:16.565Z,94.00
2019-04-27T12:39:46.241Z,94.00
2019-04-27T12:42:16.032Z,94.00
2019-04-27T12:44:44.947Z,93.90
2019-04-27T12:47:13.762Z,94.00
2019-04-27T12:49:42.550Z,95.00
2019-04-27T12:52:11.465Z,94.80
2019-04-27T12:55:00.131Z,94.90
2019-04-27T12:57:46.092Z,94.60
2019-04-27T13:00:19.738Z,94.70
2019-04-27T13:02:48.535Z,94.90
2019-04-27T13:05:17.252Z,95.80
2019-04-27T13:07:45.880Z,95.10
2019-04-27T13:10:15.917Z,95.30
2019-04-27T13:12:46.118Z,94.90
2019-04-27T13:15:15.124Z,94.90
2019-04-27T13:17:44.041Z,93.80
2019-04-27T13:20:12.706Z,93.60
2019-04-27T13:22:41.405Z,93.50
2019-04-27T13:25:10.196Z,93.10
2019-04-27T13:27:38.671Z,92.80
2019-04-27T13:30:10.091Z,92.40
2019-04-27T13:32:39.754Z,92.40
2019-04-27T13:35:08.501Z,91.70
2019-04-27T13:37:42.598Z,92.00
2019-04-27T13:40:13.088Z,91.20
2019-04-27T13:42:57.688Z,91.10
2019-04-27T13:45:48.789Z,91.10
2019-04-27T13:48:38.448Z,91.10
2019-04-27T13:51:10.070Z,91.30
2019-04-27T13:53:38.940Z,89.80
2019-04-27T13:56:17.390Z,90.00
2019-04-27T13:58:46.523Z,91.10
2019-04-27T14:01:15.161Z,91.00
2019-04-27T14:03:45.166Z,89.20
2019-04-27T14:06:14.067Z,89.00
2019-04-27T14:08:42.802Z,90.00
2019-04-27T14:11:11.585Z,90.30
2019-04-27T14:13:40.243Z,90.00
2019-04-27T14:16:08.884Z,88.60
2019-04-27T14:18:38.416Z,86.80
2019-04-27T14:21:09.307Z,85.60
2019-04-27T14:23:39.018Z,83.30
2019-04-27T14:26:08.819Z,81.50
2019-04-27T14:28:37.800Z,81.30
2019-04-27T14:31:06.807Z,82.20
2019-04-27T14:33:35.661Z,81.10
2019-04-27T14:36:04.448Z,82.40
2019-04-27T14:38:33.197Z,83.10
2019-04-27T14:41:02.031Z,81.60
2019-04-27T14:43:30.877Z,79.20
2019-04-27T14:45:59.721Z,79.60
2019-04-27T14:48:29.556Z,80.40
2019-04-27T14:50:59.079Z,81.60
2019-04-27T14:53:28.279Z,82.50
2019-04-27T14:55:58.467Z,81.50
2019-04-27T14:58:28.327Z,82.10
2019-04-27T15:00:58.577Z,81.60
2019-04-27T15:03:27.486Z,81.40
2019-04-27T15:05:56.047Z,80.10
2019-04-27T15:08:25.623Z,78.10
2019-04-27T15:10:54.803Z,79.20
2019-04-27T15:13:23.430Z,74.30
2019-04-27T15:15:52.141Z,72.20
2019-04-27T15:18:22.726Z,76.00
2019-04-27T15:20:51.743Z,76.80
2019-04-27T15:23:20.607Z,77.70
2019-04-27T15:25:49.968Z,75.70
2019-04-27T15:28:22.908Z,75.10
2019-04-27T15:31:23.593Z,74.10
2019-04-27T15:34:23.324Z,74.70
2019-04-27T15:37:28.149Z,69.60
2019-04-27T15:40:22.689Z,68.30
2019-04-27T15:43:13.589Z,69.40
2019-04-27T15:45:42.272Z,70.60
2019-04-27T15:48:10.881Z,67.80
2019-04-27T15:50:39.808Z,68.20
2019-04-27T15:53:12.369Z,69.00
2019-04-27T15:55:40.309Z,69.20
2019-04-27T15:58:09.796Z,71.80
2019-04-27T16:00:38.881Z,71.80
2019-04-27T16:03:08.271Z,74.10
2019-04-27T16:05:38.363Z,74.40
2019-04-27T16:08:12.940Z,74.40
2019-04-27T16:10:40.285Z,72.00
2019-04-27T16:13:13.503Z,75.00
2019-04-27T16:15:40.344Z,73.00
2019-04-27T16:18:09.210Z,73.00
2019-04-27T16:20:38.162Z,70.30
2019-04-27T16:23:08.756Z,72.00
2019-04-27T16:25:47.862Z,73.40
2019-04-27T16:28:09.599Z,74.10
2019-04-27T16:30:39.189Z,74.90
2019-04-27T16:33:08.717Z,76.10
2019-04-27T16:35:38.725Z,76.20
2019-04-27T16:38:26.669Z,76.50
2019-04-27T16:40:59.686Z,77.40
2019-04-27T16:43:30.048Z,78.00
2019-04-27T16:45:57.908Z,79.30
2019-04-27T16:48:28.090Z,81.00
2019-04-27T16:50:59.241Z,80.80
2019-04-27T16:53:30.182Z,83.30
2019-04-27T16:56:14.410Z,85.50
2019-04-27T16:58:39.514Z,87.00
2019-04-27T17:01:15.890Z,86.30
2019-04-27T17:03:44.868Z,86.30
2019-04-27T17:06:13.662Z,87.50
2019-04-27T17:08:42.313Z,86.80
2019-04-27T17:11:13.623Z,87.60
2019-04-27T17:13:48.406Z,88.40
2019-04-27T17:16:33.993Z,89.50
2019-04-27T17:19:12.453Z,90.50
2019-04-27T17:21:41.470Z,91.50
2019-04-27T17:24:10.030Z,90.90
2019-04-27T17:26:41.203Z,90.20
2019-04-27T17:29:16.669Z,88.90
2019-04-27T17:31:50.406Z,85.60
2019-04-27T17:34:18.935Z,90.20
2019-04-27T17:36:49.751Z,95.30
2019-04-27T17:39:19.203Z,97.10
2019-04-27T17:41:52.087Z,98.40
2019-04-27T17:44:22.658Z,98.80
2019-04-27T17:46:51.236Z,99.20
2019-04-27T17:49:20.128Z,99.60
2019-04-27T17:51:48.883Z,99.90
2019-04-27T17:54:18.208Z,99.90
2019-04-27T17:56:50.966Z,99.90
2019-04-27T17:59:20.758Z,99.90
2019-04-27T18:01:49.627Z,99.90
2019-04-27T18:04:18.645Z,99.90
2019-04-27T18:06:48.402Z,99.90
2019-04-27T18:09:18.890Z,99.90
2019-04-27T18:11:48.646Z,99.90
2019-04-27T18:14:19.283Z,99.90
2019-04-27T18:16:48.371Z,99.90
2019-04-27T18:19:25.430Z,99.90
2019-04-27T18:22:01.976Z,99.90
2019-04-27T18:24:39.154Z,99.90
2019-04-27T18:27:23.698Z,99.90
2019-04-27T18:29:54.214Z,99.90
2019-04-27T18:32:23.577Z,99.90
2019-04-27T18:34:53.431Z,99.90
2019-04-27T18:37:25.003Z,99.90
2019-04-27T18:39:54.865Z,99.90
2019-04-27T18:42:23.272Z,99.90
2019-04-27T18:44:53.459Z,99.90
2019-04-27T18:47:22.519Z,99.90
2019-04-27T18:50:10.877Z,99.90
2019-04-27T18:52:47.489Z,99.90
2019-04-27T18:55:16.689Z,99.90
2019-04-27T18:57:45.880Z,99.90
2019-04-27T19:00:17.683Z,99.90
2019-04-27T19:02:50.033Z,99.90
2019-04-27T19:05:18.701Z,99.90
2019-04-27T19:07:48.456Z,99.90
2019-04-27T19:10:19.229Z,99.90
2019-04-27T19:12:48.464Z,99.90
2019-04-27T19:15:18.375Z,99.90
2019-04-27T19:17:48.851Z,99.90
2019-04-27T19:20:18.630Z,99.90
2019-04-27T19:22:49.083Z,99.90
2019-04-27T19:25:29.202Z,99.90
2019-04-27T19:28:18.632Z,99.90
2019-04-27T19:30:51.850Z,99.90
2019-04-27T19:33:20.751Z,99.90
2019-04-27T19:35:49.279Z,99.90
2019-04-27T19:38:18.627Z,99.90
2019-04-27T19:40:47.417Z,99.90
2019-04-27T19:43:18.091Z,99.90
2019-04-27T19:45:48.231Z,99.90
2019-04-27T19:48:18.185Z,99.90
2019-04-27T19:50:47.129Z,99.90
2019-04-27T19:53:15.839Z,99.90
2019-04-27T19:55:51.431Z,99.90
2019-04-27T19:58:20.013Z,99.90
2019-04-27T20:01:09.624Z,99.90
2019-04-27T20:03:33.734Z,99.90
2019-04-27T20:06:02.372Z,99.90
2019-04-27T20:08:33.125Z,99.90
2019-04-27T20:11:01.792Z,99.90
2019-04-27T20:13:30.720Z,99.90
2019-04-27T20:16:00.906Z,99.90
2019-04-27T20:18:31.646Z,99.90
2019-04-27T20:21:00.214Z,99.90
2019-04-27T20:23:30.745Z,99.90
2019-04-27T20:25:59.648Z,99.90
2019-04-27T20:28:28.271Z,99.90
2019-04-27T20:30:57.149Z,99.90
2019-04-27T20:33:25.974Z,99.90
2019-04-27T20:35:54.793Z,99.90
2019-04-27T20:38:23.508Z,99.90
2019-04-27T20:40:52.996Z,99.90
2019-04-27T20:43:24.691Z,99.90
2019-04-27T20:45:53.140Z,99.90
2019-04-27T20:48:21.779Z,99.90
2019-04-27T20:50:51.293Z,99.90
2019-04-27T20:53:23.585Z,99.90
2019-04-27T20:55:52.270Z,99.90
2019-04-27T20:58:21.259Z,99.90
2019-04-27T21:00:51.791Z,99.90
2019-04-27T21:03:26.788Z,99.90
2019-04-27T21:06:13.033Z,99.90
2019-04-27T21:08:42.416Z,99.90
2019-04-27T21:11:11.861Z,99.90
2019-04-27T21:13:40.685Z,99.90
2019-04-27T21:16:10.926Z,99.90
2019-04-27T21:18:41.857Z,99.90
2019-04-27T21:21:11.409Z,99.90
2019-04-27T21:23:41.458Z,99.90
2019-04-27T21:26:10.439Z,99.90
2019-04-27T21:28:39.115Z,99.90
2019-04-27T21:31:07.977Z,99.90
2019-04-27T21:33:36.655Z,99.90
2019-04-27T21:36:05.445Z,99.90
2019-04-27T21:38:34.159Z,99.90
2019-04-27T21:41:04.042Z,99.90
2019-04-27T21:43:33.417Z,99.90
2019-04-27T21:46:02.198Z,99.90
2019-04-27T21:48:31.279Z,99.90
2019-04-27T21:51:01.545Z,99.90
2019-04-27T21:53:48.875Z,99.90
2019-04-27T21:56:17.618Z,99.90
2019-04-27T21:58:47.315Z,99.90
2019-04-27T22:01:29.226Z,99.90
2019-04-27T22:03:58.178Z,99.90
2019-04-27T22:06:26.982Z,99.90
2019-04-27T22:08:55.724Z,99.90
2019-04-27T22:11:24.663Z,99.90
2019-04-27T22:13:53.484Z,99.90
2019-04-27T22:16:22.382Z,99.90
2019-04-27T22:18:51.947Z,99.90
2019-04-27T22:21:21.610Z,99.90
2019-04-27T22:23:55.825Z,99.90
2019-04-27T22:26:24.530Z,99.90
2019-04-27T22:28:53.272Z,99.90
2019-04-27T22:31:22.169Z,99.90
2019-04-27T22:33:52.529Z,99.90
2019-04-27T22:36:21.316Z,99.90
2019-04-27T22:38:51.565Z,99.90
2019-04-27T22:41:38.770Z,99.90
2019-04-27T22:44:46.703Z,99.90
2019-04-27T22:47:15.417Z,99.90
2019-04-27T22:49:44.053Z,99.90
2019-04-27T22:52:12.868Z,99.90
2019-04-27T22:54:42.133Z,99.90
2019-04-27T22:57:31.300Z,99.90
2019-04-27T23:00:13.716Z,99.90
2019-04-27T23:02:47.876Z,99.90
2019-04-27T23:05:16.564Z,99.90
2019-04-27T23:07:45.280Z,99.90
2019-04-27T23:10:14.156Z,99.90
2019-04-27T23:12:42.779Z,99.90
2019-04-27T23:15:15.813Z,99.90
2019-04-27T23:17:58.072Z,99.90
2019-04-27T23:20:26.888Z,99.90
2019-04-27T23:22:55.770Z,99.90
2019-04-27T23:25:24.660Z,99.90
2019-04-27T23:27:53.458Z,99.90
2019-04-27T23:30:27.820Z,99.90
2019-04-27T23:32:56.488Z,99.90
2019-04-27T23:35:25.054Z,99.90
2019-04-27T23:37:53.759Z,99.90
2019-04-27T23:40:22.645Z,99.90
2019-04-27T23:42:51.592Z,99.90
2019-04-27T23:45:22.303Z,99.90
2019-04-27T23:47:50.893Z,99.90
2019-04-27T23:50:19.556Z,99.90
2019-04-27T23:53:26.909Z,99.90
2019-04-27T23:55:55.479Z,99.90
2019-04-27T23:58:24.185Z,99.90
